sensor_id;sensor_type;location;lat;lon;timestamp;temperature;humidity
43647;DHT22;56152;49.996;18.980;2023-09-18T00:01:52;15.80;93.20
43647;DHT22;56152;49.996;18.980;2023-09-18T00:06:55;15.80;93.10
43647;DHT22;56152;49.996;18.980;2023-09-18T00:11:59;15.70;93.20
43647;DHT22;56152;49.996;18.980;2023-09-18T00:17:19;15.60;93.30
43647;DHT22;56152;49.996;18.980;2023-09-18T00:22:24;15.60;93.40
43647;DHT22;56152;49.996;18.980;2023-09-18T00:27:27;15.50;93.30
43647;DHT22;56152;49.996;18.980;2023-09-18T00:32:34;15.50;93.30
43647;DHT22;56152;49.996;18.980;2023-09-18T00:37:38;15.50;93.30
43647;DHT22;56152;49.996;18.980;2023-09-18T00:42:42;15.50;93.30
43647;DHT22;56152;49.996;18.980;2023-09-18T00:47:46;15.50;93.30
43647;DHT22;56152;49.996;18.980;2023-09-18T00:52:51;15.40;93.30
43647;DHT22;56152;49.996;18.980;2023-09-18T00:57:55;15.40;93.40
43647;DHT22;56152;49.996;18.980;2023-09-18T01:03:01;15.40;93.50
43647;DHT22;56152;49.996;18.980;2023-09-18T01:08:06;15.40;93.50
43647;DHT22;56152;49.996;18.980;2023-09-18T01:13:12;15.30;93.50
43647;DHT22;56152;49.996;18.980;2023-09-18T01:18:20;15.20;93.60
43647;DHT22;56152;49.996;18.980;2023-09-18T01:23:24;15.20;93.60
43647;DHT22;56152;49.996;18.980;2023-09-18T01:28:30;15.00;93.80
43647;DHT22;56152;49.996;18.980;2023-09-18T01:33:34;14.90;93.90
43647;DHT22;56152;49.996;18.980;2023-09-18T01:38:42;14.90;93.80
43647;DHT22;56152;49.996;18.980;2023-09-18T01:43:44;14.90;93.70
43647;DHT22;56152;49.996;18.980;2023-09-18T01:48:48;14.90;93.80
43647;DHT22;56152;49.996;18.980;2023-09-18T01:53:54;14.90;93.80
43647;DHT22;56152;49.996;18.980;2023-09-18T01:58:56;14.80;93.80
43647;DHT22;56152;49.996;18.980;2023-09-18T02:03:59;14.80;93.90
43647;DHT22;56152;49.996;18.980;2023-09-18T02:09:04;14.80;94.00
43647;DHT22;56152;49.996;18.980;2023-09-18T02:14:08;14.80;94.00
43647;DHT22;56152;49.996;18.980;2023-09-18T02:19:11;14.80;94.00
43647;DHT22;56152;49.996;18.980;2023-09-18T02:24:19;14.80;94.10
43647;DHT22;56152;49.996;18.980;2023-09-18T02:29:26;14.80;94.10
43647;DHT22;56152;49.996;18.980;2023-09-18T02:34:29;14.70;94.20
43647;DHT22;56152;49.996;18.980;2023-09-18T02:39:34;14.70;94.40
43647;DHT22;56152;49.996;18.980;2023-09-18T02:44:37;14.80;94.50
43647;DHT22;56152;49.996;18.980;2023-09-18T02:49:40;14.90;94.40
43647;DHT22;56152;49.996;18.980;2023-09-18T02:54:47;15.00;94.40
43647;DHT22;56152;49.996;18.980;2023-09-18T02:59:50;15.00;94.40
43647;DHT22;56152;49.996;18.980;2023-09-18T03:04:52;14.90;94.40
43647;DHT22;56152;49.996;18.980;2023-09-18T03:09:56;14.90;94.30
43647;DHT22;56152;49.996;18.980;2023-09-18T03:14:58;14.80;94.40
43647;DHT22;56152;49.996;18.980;2023-09-18T03:20:00;14.70;94.50
43647;DHT22;56152;49.996;18.980;2023-09-18T03:25:13;14.60;94.50
43647;DHT22;56152;49.996;18.980;2023-09-18T03:30:16;14.50;94.40
43647;DHT22;56152;49.996;18.980;2023-09-18T03:35:20;14.40;94.60
43647;DHT22;56152;49.996;18.980;2023-09-18T03:40:34;14.20;94.70
43647;DHT22;56152;49.996;18.980;2023-09-18T03:45:54;14.20;94.80
43647;DHT22;56152;49.996;18.980;2023-09-18T03:50:56;14.10;94.80
43647;DHT22;56152;49.996;18.980;2023-09-18T03:56:11;14.10;94.70
43647;DHT22;56152;49.996;18.980;2023-09-18T04:01:16;14.00;94.90
43647;DHT22;56152;49.996;18.980;2023-09-18T04:06:21;14.00;95.00
43647;DHT22;56152;49.996;18.980;2023-09-18T04:11:28;14.00;95.20
43647;DHT22;56152;49.996;18.980;2023-09-18T04:16:34;14.00;95.10
43647;DHT22;56152;49.996;18.980;2023-09-18T04:21:42;14.10;95.10
43647;DHT22;56152;49.996;18.980;2023-09-18T04:26:46;14.00;95.10
43647;DHT22;56152;49.996;18.980;2023-09-18T04:31:48;14.00;95.20
43647;DHT22;56152;49.996;18.980;2023-09-18T04:36:52;14.00;95.20
43647;DHT22;56152;49.996;18.980;2023-09-18T04:41:58;14.00;95.30
43647;DHT22;56152;49.996;18.980;2023-09-18T04:47:03;14.00;95.30
43647;DHT22;56152;49.996;18.980;2023-09-18T04:52:06;14.00;95.40
43647;DHT22;56152;49.996;18.980;2023-09-18T04:57:11;14.00;95.30
43647;DHT22;56152;49.996;18.980;2023-09-18T05:02:13;14.10;95.40
43647;DHT22;56152;49.996;18.980;2023-09-18T05:07:15;14.20;95.30
43647;DHT22;56152;49.996;18.980;2023-09-18T05:12:19;14.20;95.30
43647;DHT22;56152;49.996;18.980;2023-09-18T05:17:39;14.30;95.40
43647;DHT22;56152;49.996;18.980;2023-09-18T05:22:42;14.40;95.40
43647;DHT22;56152;49.996;18.980;2023-09-18T05:27:47;14.50;95.40
43647;DHT22;56152;49.996;18.980;2023-09-18T05:32:55;14.70;95.30
43647;DHT22;56152;49.996;18.980;2023-09-18T05:38:04;14.90;95.30
43647;DHT22;56152;49.996;18.980;2023-09-18T05:43:10;15.10;95.20
43647;DHT22;56152;49.996;18.980;2023-09-18T05:48:17;15.50;95.20
43647;DHT22;56152;49.996;18.980;2023-09-18T05:53:20;15.90;95.00
43647;DHT22;56152;49.996;18.980;2023-09-18T05:58:24;16.40;94.60
43647;DHT22;56152;49.996;18.980;2023-09-18T06:03:28;16.80;94.20
43647;DHT22;56152;49.996;18.980;2023-09-18T06:14:15;17.90;93.30
43647;DHT22;56152;49.996;18.980;2023-09-18T06:57:57;21.30;88.90
43647;DHT22;56152;49.996;18.980;2023-09-18T07:03:13;21.70;87.30
43647;DHT22;56152;49.996;18.980;2023-09-18T07:08:16;22.10;86.90
43647;DHT22;56152;49.996;18.980;2023-09-18T07:13:26;22.30;86.10
43647;DHT22;56152;49.996;18.980;2023-09-18T07:18:31;22.60;85.50
43647;DHT22;56152;49.996;18.980;2023-09-18T07:23:33;22.80;84.00
43647;DHT22;56152;49.996;18.980;2023-09-18T07:28:39;23.00;83.20
43647;DHT22;56152;49.996;18.980;2023-09-18T07:33:42;23.20;82.00
43647;DHT22;56152;49.996;18.980;2023-09-18T07:38:48;23.50;82.10
43647;DHT22;56152;49.996;18.980;2023-09-18T07:43:52;23.80;81.30
43647;DHT22;56152;49.996;18.980;2023-09-18T07:48:54;24.10;80.40
43647;DHT22;56152;49.996;18.980;2023-09-18T07:53:57;24.40;79.50
43647;DHT22;56152;49.996;18.980;2023-09-18T07:59:03;24.80;78.10
43647;DHT22;56152;49.996;18.980;2023-09-18T08:04:05;25.00;77.10
43647;DHT22;56152;49.996;18.980;2023-09-18T08:09:07;25.10;77.00
43647;DHT22;56152;49.996;18.980;2023-09-18T08:14:15;25.30;76.40
43647;DHT22;56152;49.996;18.980;2023-09-18T08:19:17;25.50;75.30
43647;DHT22;56152;49.996;18.980;2023-09-18T08:24:20;25.80;75.50
43647;DHT22;56152;49.996;18.980;2023-09-18T08:29:24;26.20;73.20
43647;DHT22;56152;49.996;18.980;2023-09-18T08:34:26;26.70;71.20
43647;DHT22;56152;49.996;18.980;2023-09-18T08:39:28;26.90;70.80
43647;DHT22;56152;49.996;18.980;2023-09-18T08:44:35;27.10;70.50
43647;DHT22;56152;49.996;18.980;2023-09-18T08:49:40;27.40;69.90
43647;DHT22;56152;49.996;18.980;2023-09-18T08:54:43;27.50;68.80
43647;DHT22;56152;49.996;18.980;2023-09-18T08:59:48;27.70;68.00
43647;DHT22;56152;49.996;18.980;2023-09-18T09:04:54;27.80;66.50
43647;DHT22;56152;49.996;18.980;2023-09-18T09:09:56;27.90;67.10
43647;DHT22;56152;49.996;18.980;2023-09-18T09:15:04;27.80;65.10
43647;DHT22;56152;49.996;18.980;2023-09-18T09:20:10;27.70;64.80
43647;DHT22;56152;49.996;18.980;2023-09-18T09:25:23;27.60;64.30
43647;DHT22;56152;49.996;18.980;2023-09-18T09:30:29;27.80;64.50
43647;DHT22;56152;49.996;18.980;2023-09-18T09:35:32;28.00;62.50
43647;DHT22;56152;49.996;18.980;2023-09-18T09:40:35;27.90;62.50
43647;DHT22;56152;49.996;18.980;2023-09-18T09:45:41;27.90;63.80
43647;DHT22;56152;49.996;18.980;2023-09-18T09:50:45;28.10;62.70
43647;DHT22;56152;49.996;18.980;2023-09-18T09:55:54;28.10;61.70
43647;DHT22;56152;49.996;18.980;2023-09-18T10:01:03;28.10;61.60
43647;DHT22;56152;49.996;18.980;2023-09-18T10:06:10;28.40;62.10
43647;DHT22;56152;49.996;18.980;2023-09-18T10:11:16;28.50;61.10
43647;DHT22;56152;49.996;18.980;2023-09-18T10:16:23;28.50;60.20
43647;DHT22;56152;49.996;18.980;2023-09-18T10:21:32;28.60;60.50
43647;DHT22;56152;49.996;18.980;2023-09-18T10:26:41;28.60;60.70
43647;DHT22;56152;49.996;18.980;2023-09-18T10:31:50;28.60;60.60
43647;DHT22;56152;49.996;18.980;2023-09-18T10:36:54;28.70;60.10
43647;DHT22;56152;49.996;18.980;2023-09-18T10:42:01;28.80;59.40
43647;DHT22;56152;49.996;18.980;2023-09-18T10:47:10;28.90;59.30
43647;DHT22;56152;49.996;18.980;2023-09-18T10:52:16;28.90;58.60
43647;DHT22;56152;49.996;18.980;2023-09-18T10:57:22;28.90;58.70
43647;DHT22;56152;49.996;18.980;2023-09-18T11:02:27;28.70;59.00
43647;DHT22;56152;49.996;18.980;2023-09-18T11:07:29;28.60;58.50
43647;DHT22;56152;49.996;18.980;2023-09-18T11:12:43;28.50;58.20
43647;DHT22;56152;49.996;18.980;2023-09-18T11:17:58;28.20;58.60
43647;DHT22;56152;49.996;18.980;2023-09-18T11:23:15;28.10;58.80
43647;DHT22;56152;49.996;18.980;2023-09-18T11:28:23;28.00;58.60
43647;DHT22;56152;49.996;18.980;2023-09-18T11:33:34;27.90;58.10
43647;DHT22;56152;49.996;18.980;2023-09-18T11:38:51;27.70;58.70
43647;DHT22;56152;49.996;18.980;2023-09-18T11:49:51;27.60;58.00
43647;DHT22;56152;49.996;18.980;2023-09-18T11:54:58;27.50;57.90
43647;DHT22;56152;49.996;18.980;2023-09-18T12:00:01;27.50;58.10
43647;DHT22;56152;49.996;18.980;2023-09-18T12:05:16;27.50;57.50
43647;DHT22;56152;49.996;18.980;2023-09-18T12:10:20;27.50;58.30
43647;DHT22;56152;49.996;18.980;2023-09-18T12:15:22;27.60;58.00
43647;DHT22;56152;49.996;18.980;2023-09-18T12:20:27;27.60;57.10
43647;DHT22;56152;49.996;18.980;2023-09-18T12:25:29;27.50;57.60
43647;DHT22;56152;49.996;18.980;2023-09-18T12:30:36;27.60;57.50
43647;DHT22;56152;49.996;18.980;2023-09-18T12:35:43;27.60;57.60
43647;DHT22;56152;49.996;18.980;2023-09-18T12:40:51;27.60;57.70
43647;DHT22;56152;49.996;18.980;2023-09-18T12:45:54;27.60;57.90
43647;DHT22;56152;49.996;18.980;2023-09-18T12:51:05;27.50;57.70
43647;DHT22;56152;49.996;18.980;2023-09-18T12:56:10;27.30;57.50
43647;DHT22;56152;49.996;18.980;2023-09-18T13:01:14;27.30;57.90
43647;DHT22;56152;49.996;18.980;2023-09-18T13:06:20;27.30;57.70
43647;DHT22;56152;49.996;18.980;2023-09-18T13:11:22;27.20;58.20
43647;DHT22;56152;49.996;18.980;2023-09-18T13:16:26;27.30;57.50
43647;DHT22;56152;49.996;18.980;2023-09-18T13:21:34;27.10;57.70
43647;DHT22;56152;49.996;18.980;2023-09-18T13:26:41;27.10;57.90
43647;DHT22;56152;49.996;18.980;2023-09-18T13:31:47;27.10;58.00
43647;DHT22;56152;49.996;18.980;2023-09-18T13:36:54;27.00;57.90
43647;DHT22;56152;49.996;18.980;2023-09-18T13:41:56;26.80;58.00
43647;DHT22;56152;49.996;18.980;2023-09-18T13:46:58;26.70;58.00
43647;DHT22;56152;49.996;18.980;2023-09-18T13:52:06;26.70;57.70
43647;DHT22;56152;49.996;18.980;2023-09-18T13:57:10;26.50;58.00
43647;DHT22;56152;49.996;18.980;2023-09-18T14:02:13;26.50;58.00
43647;DHT22;56152;49.996;18.980;2023-09-18T14:07:16;26.40;58.30
43647;DHT22;56152;49.996;18.980;2023-09-18T14:12:20;26.30;58.30
43647;DHT22;56152;49.996;18.980;2023-09-18T14:17:23;26.40;58.50
43647;DHT22;56152;49.996;18.980;2023-09-18T14:22:26;26.30;58.50
43647;DHT22;56152;49.996;18.980;2023-09-18T14:27:28;26.30;58.80
43647;DHT22;56152;49.996;18.980;2023-09-18T14:37:49;26.20;58.90
43647;DHT22;56152;49.996;18.980;2023-09-18T14:42:51;26.10;59.30
43647;DHT22;56152;49.996;18.980;2023-09-18T14:47:55;25.90;59.30
43647;DHT22;56152;49.996;18.980;2023-09-18T14:52:59;25.80;59.60
43647;DHT22;56152;49.996;18.980;2023-09-18T14:58:06;25.60;59.70
43647;DHT22;56152;49.996;18.980;2023-09-18T15:03:09;25.40;60.40
43647;DHT22;56152;49.996;18.980;2023-09-18T15:08:13;25.20;60.90
43647;DHT22;56152;49.996;18.980;2023-09-18T15:13:17;25.20;61.00
43647;DHT22;56152;49.996;18.980;2023-09-18T15:18:20;25.10;61.80
43647;DHT22;56152;49.996;18.980;2023-09-18T15:23:25;25.00;61.90
43647;DHT22;56152;49.996;18.980;2023-09-18T15:28:28;24.90;61.80
43647;DHT22;56152;49.996;18.980;2023-09-18T15:33:30;24.80;62.00
43647;DHT22;56152;49.996;18.980;2023-09-18T15:38:36;24.60;62.00
43647;DHT22;56152;49.996;18.980;2023-09-18T15:43:40;24.50;62.00
43647;DHT22;56152;49.996;18.980;2023-09-18T15:48:43;24.40;62.50
43647;DHT22;56152;49.996;18.980;2023-09-18T15:53:47;24.30;63.20
43647;DHT22;56152;49.996;18.980;2023-09-18T15:58:49;24.10;63.50
43647;DHT22;56152;49.996;18.980;2023-09-18T16:03:51;24.00;63.50
43647;DHT22;56152;49.996;18.980;2023-09-18T16:08:55;23.90;63.80
43647;DHT22;56152;49.996;18.980;2023-09-18T16:14:00;23.80;63.60
43647;DHT22;56152;49.996;18.980;2023-09-18T16:19:08;23.80;63.80
43647;DHT22;56152;49.996;18.980;2023-09-18T16:24:12;23.70;64.00
43647;DHT22;56152;49.996;18.980;2023-09-18T16:29:17;23.50;64.50
43647;DHT22;56152;49.996;18.980;2023-09-18T16:34:20;23.40;64.80
43647;DHT22;56152;49.996;18.980;2023-09-18T16:39:24;23.20;65.70
43647;DHT22;56152;49.996;18.980;2023-09-18T16:44:27;22.90;66.20
43647;DHT22;56152;49.996;18.980;2023-09-18T16:49:30;22.70;66.80
43647;DHT22;56152;49.996;18.980;2023-09-18T16:54:35;22.40;67.60
43647;DHT22;56152;49.996;18.980;2023-09-18T16:59:37;22.20;67.90
43647;DHT22;56152;49.996;18.980;2023-09-18T17:04:39;22.10;68.60
43647;DHT22;56152;49.996;18.980;2023-09-18T17:09:44;21.90;68.70
43647;DHT22;56152;49.996;18.980;2023-09-18T17:14:46;21.80;69.10
43647;DHT22;56152;49.996;18.980;2023-09-18T17:19:48;21.50;69.50
43647;DHT22;56152;49.996;18.980;2023-09-18T17:24:53;21.40;70.30
43647;DHT22;56152;49.996;18.980;2023-09-18T17:29:55;21.30;70.80
43647;DHT22;56152;49.996;18.980;2023-09-18T17:34:59;21.10;71.50
43647;DHT22;56152;49.996;18.980;2023-09-18T17:40:04;21.00;71.80
43647;DHT22;56152;49.996;18.980;2023-09-18T17:45:11;20.80;72.60
43647;DHT22;56152;49.996;18.980;2023-09-18T17:50:14;20.70;72.80
43647;DHT22;56152;49.996;18.980;2023-09-18T17:55:19;20.60;73.10
43647;DHT22;56152;49.996;18.980;2023-09-18T18:00:21;20.50;73.50
43647;DHT22;56152;49.996;18.980;2023-09-18T18:05:24;20.50;73.60
43647;DHT22;56152;49.996;18.980;2023-09-18T18:10:31;20.50;73.70
43647;DHT22;56152;49.996;18.980;2023-09-18T18:15:35;20.40;73.90
43647;DHT22;56152;49.996;18.980;2023-09-18T18:20:42;20.40;74.20
43647;DHT22;56152;49.996;18.980;2023-09-18T18:26:01;20.30;74.30
43647;DHT22;56152;49.996;18.980;2023-09-18T18:31:05;20.20;74.60
43647;DHT22;56152;49.996;18.980;2023-09-18T18:36:07;20.10;74.90
43647;DHT22;56152;49.996;18.980;2023-09-18T18:41:10;20.10;75.10
43647;DHT22;56152;49.996;18.980;2023-09-18T18:46:12;20.00;75.60
43647;DHT22;56152;49.996;18.980;2023-09-18T18:51:16;19.80;76.00
43647;DHT22;56152;49.996;18.980;2023-09-18T18:56:20;19.70;76.40
43647;DHT22;56152;49.996;18.980;2023-09-18T19:01:23;19.70;76.60
43647;DHT22;56152;49.996;18.980;2023-09-18T19:06:28;19.70;76.80
43647;DHT22;56152;49.996;18.980;2023-09-18T19:11:33;19.50;77.30
43647;DHT22;56152;49.996;18.980;2023-09-18T19:16:37;19.50;77.80
43647;DHT22;56152;49.996;18.980;2023-09-18T19:21:39;19.40;78.00
43647;DHT22;56152;49.996;18.980;2023-09-18T19:26:43;19.20;78.10
43647;DHT22;56152;49.996;18.980;2023-09-18T19:31:49;19.10;78.70
43647;DHT22;56152;49.996;18.980;2023-09-18T19:36:53;19.00;78.90
43647;DHT22;56152;49.996;18.980;2023-09-18T19:41:58;19.00;79.00
43647;DHT22;56152;49.996;18.980;2023-09-18T19:47:03;19.00;79.20
43647;DHT22;56152;49.996;18.980;2023-09-18T19:52:07;18.90;79.30
43647;DHT22;56152;49.996;18.980;2023-09-18T19:57:15;18.80;79.50
43647;DHT22;56152;49.996;18.980;2023-09-18T20:02:18;18.80;79.60
43647;DHT22;56152;49.996;18.980;2023-09-18T20:07:23;18.60;80.00
43647;DHT22;56152;49.996;18.980;2023-09-18T20:12:28;18.60;80.20
43647;DHT22;56152;49.996;18.980;2023-09-18T20:17:31;18.50;80.40
43647;DHT22;56152;49.996;18.980;2023-09-18T20:22:36;18.40;80.80
43647;DHT22;56152;49.996;18.980;2023-09-18T20:27:40;18.40;82.00
43647;DHT22;56152;49.996;18.980;2023-09-18T20:32:44;18.30;81.60
43647;DHT22;56152;49.996;18.980;2023-09-18T20:37:47;18.20;81.80
43647;DHT22;56152;49.996;18.980;2023-09-18T20:42:52;18.20;82.10
43647;DHT22;56152;49.996;18.980;2023-09-18T20:47:55;18.10;82.30
43647;DHT22;56152;49.996;18.980;2023-09-18T20:52:57;18.10;82.40
43647;DHT22;56152;49.996;18.980;2023-09-18T20:58:02;18.00;82.70
43647;DHT22;56152;49.996;18.980;2023-09-18T21:03:05;18.00;83.00
43647;DHT22;56152;49.996;18.980;2023-09-18T21:08:07;17.90;83.30
43647;DHT22;56152;49.996;18.980;2023-09-18T21:13:11;17.80;83.50
43647;DHT22;56152;49.996;18.980;2023-09-18T21:18:14;17.80;83.90
43647;DHT22;56152;49.996;18.980;2023-09-18T21:23:16;17.80;84.10
43647;DHT22;56152;49.996;18.980;2023-09-18T21:28:20;17.70;84.30
43647;DHT22;56152;49.996;18.980;2023-09-18T21:33:23;17.70;84.60
43647;DHT22;56152;49.996;18.980;2023-09-18T21:38:27;17.60;84.70
43647;DHT22;56152;49.996;18.980;2023-09-18T21:43:31;17.50;85.00
43647;DHT22;56152;49.996;18.980;2023-09-18T21:48:36;17.50;85.40
43647;DHT22;56152;49.996;18.980;2023-09-18T21:53:38;17.40;85.80
43647;DHT22;56152;49.996;18.980;2023-09-18T21:58:42;17.20;86.40
43647;DHT22;56152;49.996;18.980;2023-09-18T22:03:45;17.20;86.60
43647;DHT22;56152;49.996;18.980;2023-09-18T22:08:50;17.20;86.70
43647;DHT22;56152;49.996;18.980;2023-09-18T22:13:54;17.10;86.80
43647;DHT22;56152;49.996;18.980;2023-09-18T22:18:56;17.10;86.90
43647;DHT22;56152;49.996;18.980;2023-09-18T22:23:58;17.10;87.00
43647;DHT22;56152;49.996;18.980;2023-09-18T22:29:02;17.00;87.30
43647;DHT22;56152;49.996;18.980;2023-09-18T22:34:07;16.90;87.80
43647;DHT22;56152;49.996;18.980;2023-09-18T22:56:02;16.70;89.50
43647;DHT22;56152;49.996;18.980;2023-09-18T23:01:05;16.70;89.30
43647;DHT22;56152;49.996;18.980;2023-09-18T23:06:08;16.70;89.30
43647;DHT22;56152;49.996;18.980;2023-09-18T23:11:13;16.80;89.60
43647;DHT22;56152;49.996;18.980;2023-09-18T23:16:20;16.80;89.80
43647;DHT22;56152;49.996;18.980;2023-09-18T23:21:26;16.80;90.00
43647;DHT22;56152;49.996;18.980;2023-09-18T23:26:31;16.80;90.00
43647;DHT22;56152;49.996;18.980;2023-09-18T23:31:33;16.90;90.20
43647;DHT22;56152;49.996;18.980;2023-09-18T23:36:37;16.80;90.30
43647;DHT22;56152;49.996;18.980;2023-09-18T23:41:42;16.90;90.30
43647;DHT22;56152;49.996;18.980;2023-09-18T23:46:44;16.90;90.30
43647;DHT22;56152;49.996;18.980;2023-09-18T23:51:48;16.90;90.20
43647;DHT22;56152;49.996;18.980;2023-09-18T23:56:53;17.00;90.20
